Time;durP1;ratioP1;P1;durP2;ratioP2;P2;SDS_P1;SDS_P2;PMS_P1;PMS_P2;Temp;Humidity;BMP_temperature;BMP_pressure;BME280_temperature;BME280_humidity;BME280_pressure;Samples;Min_cycle;Max_cycle;Signal;HPM_P1;HPM_P2
2023/11/02 00:04:51;;;;;;;;;10.00;8.50;;;;;;;;6490965;39;9007;-66
2023/11/02 00:10:55;;;;;;;;;11.00;11.00;;;;;;;;6489539;46;8938;-66
2023/11/02 00:16:58;;;;;;;;;14.75;12.00;;;;;;;;6490405;39;8871;-65
2023/11/02 00:23:11;;;;;;;;;14.00;14.00;;;;;;;;6489499;39;8835;-68
2023/11/02 00:29:27;;;;;;;;;14.25;13.25;;;;;;;;6489637;39;8895;-65
2023/11/02 00:35:32;;;;;;;;;13.25;13.00;;;;;;;;6489855;31;8892;-66
2023/11/02 00:41:38;;;;;;;;;18.00;17.25;;;;;;;;6489374;47;8867;-66
2023/11/02 00:47:42;;;;;;;;;17.00;12.75;;;;;;;;6490199;39;8886;-67
2023/11/02 00:53:56;;;;;;;;;20.50;17.50;;;;;;;;6489649;46;8946;-66
2023/11/02 01:00:02;;;;;;;;;21.75;16.25;;;;;;;;6489703;46;8937;-66
2023/11/02 01:06:19;;;;;;;;;17.00;17.00;;;;;;;;6489131;39;8953;-66
2023/11/02 01:12:36;;;;;;;;;15.50;15.50;;;;;;;;6490137;46;8907;-66
2023/11/02 01:18:44;;;;;;;;;17.25;16.00;;;;;;;;6489763;39;8914;-66
2023/11/02 01:24:49;;;;;;;;;12.75;12.75;;;;;;;;6490242;39;8883;-66
2023/11/02 01:31:13;;;;;;;;;16.25;14.50;;;;;;;;6489702;31;8998;-66
2023/11/02 01:37:19;;;;;;;;;13.00;13.00;;;;;;;;6488298;31;8871;-65
2023/11/02 01:43:38;;;;;;;;;4.00;4.00;;;;;;;;6489122;46;8918;-66
2023/11/02 01:49:46;;;;;;;;;12.75;12.00;;;;;;;;6491108;31;8907;-65
2023/11/02 01:56:07;;;;;;;;;12.50;12.50;;;;;;;;6490581;39;8899;-67
2023/11/02 02:02:14;;;;;;;;;8.00;8.00;;;;;;;;6489207;46;8930;-66
2023/11/02 05:06:29;;;;;;;;;15.00;15.00;;;;;;;;6295857;39;10000903;-66
2023/11/02 05:12:32;;;;;;;;;19.75;16.00;;;;;;;;6491226;46;8964;-65
2023/11/02 05:18:35;;;;;;;;;21.75;16.50;;;;;;;;6490913;39;8890;-67
2023/11/02 05:24:38;;;;;;;;;18.00;15.50;;;;;;;;6492655;31;8965;-66
2023/11/02 05:30:42;;;;;;;;;16.00;15.00;;;;;;;;6490545;39;8965;-66
2023/11/02 05:36:47;;;;;;;;;17.25;17.00;;;;;;;;6489771;39;8841;-66
2023/11/02 05:42:56;;;;;;;;;17.00;15.50;;;;;;;;6491207;39;8919;-65
2023/11/02 05:49:01;;;;;;;;;16.25;15.25;;;;;;;;6491110;39;8870;-66
2023/11/02 05:55:08;;;;;;;;;16.00;15.50;;;;;;;;6491139;39;8944;-67
2023/11/02 06:01:12;;;;;;;;;16.00;16.00;;;;;;;;6489938;31;8879;-67
2023/11/02 06:07:14;;;;;;;;;21.50;18.75;;;;;;;;6489544;46;8908;-67
2023/11/02 06:13:18;;;;;;;;;20.75;19.75;;;;;;;;6489067;46;8950;-67
2023/11/02 06:19:23;;;;;;;;;26.50;21.75;;;;;;;;6491049;31;8899;-67
2023/11/02 06:25:26;;;;;;;;;24.50;20.50;;;;;;;;6490661;39;8894;-68
2023/11/02 06:31:31;;;;;;;;;15.00;15.00;;;;;;;;6489121;39;8926;-68
2023/11/02 06:37:56;;;;;;;;;18.25;18.25;;;;;;;;6489132;31;8866;-67
2023/11/02 06:44:01;;;;;;;;;19.75;17.75;;;;;;;;6488986;39;8904;-67
2023/11/02 06:50:05;;;;;;;;;19.75;18.00;;;;;;;;6486923;31;9645;-67
2023/11/02 06:56:08;;;;;;;;;21.75;17.00;;;;;;;;6480417;39;8920;-65
2023/11/02 07:02:17;;;;;;;;;18.50;17.00;;;;;;;;6486498;47;8986;-67
2023/11/02 07:08:23;;;;;;;;;19.25;17.50;;;;;;;;6488843;39;8911;-65
2023/11/02 07:14:27;;;;;;;;;22.75;20.50;;;;;;;;6487470;39;9021;-63
2023/11/02 07:20:32;;;;;;;;;22.00;17.75;;;;;;;;6486869;39;8970;-65
2023/11/02 07:26:38;;;;;;;;;23.00;22.25;;;;;;;;6486716;47;8907;-64
2023/11/02 07:32:45;;;;;;;;;28.75;23.00;;;;;;;;6486795;47;9008;-65
2023/11/02 07:38:49;;;;;;;;;26.75;25.00;;;;;;;;6487905;39;8923;-65
2023/11/02 07:44:59;;;;;;;;;21.00;19.75;;;;;;;;6484736;39;8920;-66
2023/11/02 07:51:32;;;;;;;;;28.75;23.00;;;;;;;;6488837;39;8891;-66
2023/11/02 07:57:35;;;;;;;;;25.50;23.25;;;;;;;;6485534;46;8929;-65
2023/11/02 08:03:41;;;;;;;;;22.33;20.00;;;;;;;;6487662;39;9100;-66
2023/11/02 08:09:48;;;;;;;;;25.75;23.75;;;;;;;;6489048;39;9523;-65
2023/11/02 08:16:00;;;;;;;;;34.00;30.75;;;;;;;;6488401;31;8947;-64
2023/11/02 08:22:05;;;;;;;;;27.67;27.33;;;;;;;;6487999;39;8905;-66
2023/11/02 08:28:07;;;;;;;;;41.25;35.75;;;;;;;;6488925;39;9418;-65
2023/11/02 08:34:19;;;;;;;;;29.25;24.25;;;;;;;;6485589;39;8904;-65
2023/11/02 08:40:21;;;;;;;;;21.67;21.67;;;;;;;;6488755;46;8926;-65
2023/11/02 08:46:36;;;;;;;;;35.00;33.75;;;;;;;;6487277;39;8911;-66
2023/11/02 08:52:53;;;;;;;;;52.25;44.25;;;;;;;;6489000;39;8934;-65
2023/11/02 08:58:59;;;;;;;;;33.25;30.25;;;;;;;;6486696;39;8927;-65
2023/11/02 09:05:03;;;;;;;;;32.67;28.00;;;;;;;;6486644;39;9041;-66
2023/11/02 09:11:08;;;;;;;;;42.25;38.00;;;;;;;;6485239;31;9666;-66
2023/11/02 09:17:16;;;;;;;;;32.67;31.00;;;;;;;;6482934;39;8929;-64
2023/11/02 09:23:21;;;;;;;;;42.00;37.67;;;;;;;;6486480;31;9065;-65
2023/11/02 09:29:26;;;;;;;;;22.33;20.00;;;;;;;;6486154;31;9523;-65
2023/11/02 09:35:29;;;;;;;;;26.67;23.33;;;;;;;;6485498;39;9042;-64
2023/11/02 09:41:35;;;;;;;;;32.67;29.00;;;;;;;;6487435;39;8917;-64
2023/11/02 09:47:50;;;;;;;;;22.00;21.67;;;;;;;;6484091;46;8973;-66
2023/11/02 09:53:54;;;;;;;;;23.00;21.67;;;;;;;;6487150;31;8950;-66
2023/11/02 10:00:07;;;;;;;;;26.67;23.67;;;;;;;;6485515;39;8975;-66
2023/11/02 10:06:14;;;;;;;;;19.33;18.67;;;;;;;;6484879;39;9058;-65
2023/11/02 10:12:25;;;;;;;;;19.67;17.00;;;;;;;;6480037;39;9012;-65
2023/11/02 10:18:28;;;;;;;;;24.00;21.67;;;;;;;;6484491;31;9038;-64
2023/11/02 10:24:35;;;;;;;;;22.67;22.67;;;;;;;;6482503;31;9006;-65
2023/11/02 10:30:39;;;;;;;;;31.00;29.00;;;;;;;;6484367;39;8953;-64
2023/11/02 10:36:50;;;;;;;;;58.75;46.75;;;;;;;;6485803;39;8927;-63
2023/11/02 10:43:03;;;;;;;;;38.67;33.00;;;;;;;;6485163;46;9049;-65
2023/11/02 10:49:11;;;;;;;;;27.50;25.50;;;;;;;;6486474;31;8915;-63
2023/11/02 10:55:25;;;;;;;;;38.67;34.00;;;;;;;;6485942;39;8927;-64
2023/11/02 11:01:31;;;;;;;;;26.33;23.33;;;;;;;;6485873;39;8971;-62
2023/11/02 11:07:42;;;;;;;;;19.67;17.00;;;;;;;;6486211;31;9152;-64
2023/11/02 11:13:46;;;;;;;;;32.33;30.00;;;;;;;;6486219;39;8987;-64
2023/11/02 11:19:56;;;;;;;;;22.00;21.00;;;;;;;;6486449;39;8993;-64
2023/11/02 11:26:03;;;;;;;;;23.00;21.00;;;;;;;;6486839;31;8919;-65
2023/11/02 11:32:29;;;;;;;;;28.00;26.67;;;;;;;;6487936;39;8934;-63
2023/11/02 11:38:36;;;;;;;;;23.33;22.00;;;;;;;;6487851;39;9151;-64
2023/11/02 11:44:41;;;;;;;;;23.67;19.67;;;;;;;;6486293;39;9612;-64
2023/11/02 11:50:49;;;;;;;;;23.00;21.67;;;;;;;;6485498;31;9694;-64
2023/11/02 11:57:00;;;;;;;;;19.67;18.67;;;;;;;;6486655;39;9037;-65
2023/11/02 12:03:43;;;;;;;;;25.00;22.00;;;;;;;;6486244;46;9021;-64
2023/11/02 12:09:49;;;;;;;;;24.67;24.67;;;;;;;;6487113;39;8902;-63
2023/11/02 12:15:57;;;;;;;;;22.33;21.33;;;;;;;;6486132;31;8959;-66
2023/11/02 12:22:05;;;;;;;;;33.00;29.00;;;;;;;;6487109;39;8926;-66
2023/11/02 12:28:12;;;;;;;;;21.33;20.00;;;;;;;;6484945;46;8926;-64
2023/11/02 12:34:25;;;;;;;;;31.33;28.33;;;;;;;;6486854;39;9139;-64
2023/11/02 12:40:48;;;;;;;;;26.00;24.67;;;;;;;;6488372;39;9022;-64
2023/11/02 12:47:06;;;;;;;;;35.33;31.67;;;;;;;;6487534;46;8973;-65
2023/11/02 12:53:34;;;;;;;;;23.00;22.00;;;;;;;;6488017;39;8934;-65
2023/11/02 12:59:42;;;;;;;;;20.00;18.67;;;;;;;;6485916;31;8966;-65
2023/11/02 13:05:52;;;;;;;;;23.00;18.67;;;;;;;;6488386;39;8933;-66
2023/11/02 13:11:55;;;;;;;;;25.00;22.00;;;;;;;;6487528;39;8955;-64
2023/11/02 13:18:00;;;;;;;;;22.33;18.67;;;;;;;;6488028;39;8915;-65
2023/11/02 13:24:06;;;;;;;;;21.50;17.00;;;;;;;;6484330;39;9357;-65
2023/11/02 13:30:11;;;;;;;;;22.67;19.67;;;;;;;;6486894;39;8978;-65
2023/11/02 13:36:16;;;;;;;;;29.00;25.67;;;;;;;;6487051;31;8928;-64
2023/11/02 13:42:21;;;;;;;;;26.67;24.00;;;;;;;;6484591;39;9909;-64
2023/11/02 13:48:27;;;;;;;;;34.00;29.67;;;;;;;;6486004;31;8913;-65
2023/11/02 13:54:33;;;;;;;;;22.00;20.00;;;;;;;;6485599;39;8922;-65
2023/11/02 14:00:37;;;;;;;;;22.00;20.00;;;;;;;;6484126;39;8968;-63
2023/11/02 14:06:43;;;;;;;;;21.67;20.00;;;;;;;;6484550;39;9515;-63
2023/11/02 14:12:46;;;;;;;;;20.00;20.00;;;;;;;;6484294;31;8985;-62
2023/11/02 14:18:56;;;;;;;;;24.33;22.33;;;;;;;;6486011;46;8958;-63
2023/11/02 14:25:02;;;;;;;;;31.67;25.00;;;;;;;;6483488;46;9000;-63
2023/11/02 14:31:06;;;;;;;;;26.00;24.67;;;;;;;;6483039;39;8911;-63
2023/11/02 14:37:15;;;;;;;;;24.33;21.67;;;;;;;;6483798;46;9021;-62
2023/11/02 14:43:37;;;;;;;;;24.67;24.67;;;;;;;;6485718;46;8979;-62
2023/11/02 14:49:42;;;;;;;;;28.00;27.00;;;;;;;;6488031;46;9002;-62
2023/11/02 14:55:48;;;;;;;;;23.00;23.00;;;;;;;;6487770;46;8917;-62
2023/11/02 15:02:09;;;;;;;;;30.67;26.67;;;;;;;;6487861;39;8982;-64
2023/11/02 15:08:18;;;;;;;;;22.33;21.33;;;;;;;;6489531;31;9091;-63
2023/11/02 15:14:21;;;;;;;;;25.33;22.00;;;;;;;;6489236;46;8918;-63
2023/11/02 15:20:25;;;;;;;;;20.33;20.33;;;;;;;;6488005;46;8895;-63
2023/11/02 15:26:39;;;;;;;;;23.33;23.33;;;;;;;;6488465;31;8957;-64
2023/11/02 15:32:43;;;;;;;;;29.67;27.67;;;;;;;;6488078;39;8942;-66
2023/11/02 15:38:49;;;;;;;;;20.67;20.67;;;;;;;;6488803;39;8874;-65
2023/11/02 15:44:55;;;;;;;;;24.00;21.33;;;;;;;;6488190;39;8934;-64
2023/11/02 15:51:05;;;;;;;;;24.67;23.00;;;;;;;;6489119;39;9074;-64
2023/11/02 15:57:10;;;;;;;;;26.67;23.00;;;;;;;;6489364;39;8958;-65
2023/11/02 16:03:14;;;;;;;;;24.33;23.00;;;;;;;;6489780;39;8949;-64
2023/11/02 16:09:18;;;;;;;;;24.33;23.00;;;;;;;;6490492;39;9455;-62
2023/11/02 16:15:24;;;;;;;;;16.67;14.00;;;;;;;;6488906;46;8844;-64
2023/11/02 16:21:29;;;;;;;;;28.33;24.67;;;;;;;;6489104;39;9475;-63
2023/11/02 16:27:34;;;;;;;;;20.33;20.33;;;;;;;;6488963;46;8890;-63
2023/11/02 16:33:38;;;;;;;;;26.00;24.67;;;;;;;;6489473;39;8979;-65
2023/11/02 16:39:44;;;;;;;;;26.33;21.33;;;;;;;;6488702;31;8891;-64
2023/11/02 16:45:50;;;;;;;;;28.00;26.67;;;;;;;;6489201;39;9557;-65
2023/11/02 16:51:56;;;;;;;;;27.00;23.67;;;;;;;;6489333;39;8908;-62
2023/11/02 16:58:08;;;;;;;;;27.00;26.67;;;;;;;;6488587;39;8951;-62
2023/11/02 17:04:18;;;;;;;;;25.00;21.33;;;;;;;;6489426;31;8939;-63
2023/11/02 17:10:25;;;;;;;;;26.33;21.67;;;;;;;;6488192;46;8883;-63
2023/11/02 17:16:30;;;;;;;;;26.33;24.00;;;;;;;;6488089;31;8914;-65
2023/11/02 17:22:36;;;;;;;;;29.67;28.67;;;;;;;;6488365;39;8926;-63
2023/11/02 17:28:41;;;;;;;;;26.67;25.00;;;;;;;;6488327;39;8831;-65
2023/11/02 17:34:45;;;;;;;;;30.67;29.33;;;;;;;;6488215;46;8949;-63
2023/11/02 17:40:54;;;;;;;;;28.00;26.00;;;;;;;;6488445;39;8907;-63
2023/11/02 17:47:01;;;;;;;;;24.67;23.67;;;;;;;;6489462;39;8879;-64
2023/11/02 17:53:06;;;;;;;;;26.00;25.33;;;;;;;;6488899;31;9642;-64
2023/11/02 17:59:12;;;;;;;;;31.00;23.67;;;;;;;;6487461;39;8899;-65
2023/11/02 18:05:23;;;;;;;;;29.00;26.67;;;;;;;;6488986;39;9614;-63
2023/11/02 18:11:27;;;;;;;;;29.00;26.33;;;;;;;;6488244;39;8871;-63
2023/11/02 18:17:35;;;;;;;;;29.67;26.33;;;;;;;;6488746;39;8895;-63
2023/11/02 18:23:41;;;;;;;;;33.67;27.67;;;;;;;;6488534;46;8875;-61
2023/11/02 18:29:43;;;;;;;;;29.67;28.33;;;;;;;;6488460;39;9538;-63
2023/11/02 18:35:47;;;;;;;;;31.67;28.00;;;;;;;;6487739;39;8876;-62
2023/11/02 18:41:50;;;;;;;;;30.67;30.67;;;;;;;;6488096;39;9667;-63
2023/11/02 18:47:56;;;;;;;;;29.33;28.00;;;;;;;;6488271;39;8902;-64
2023/11/02 18:54:02;;;;;;;;;40.33;36.00;;;;;;;;6488908;39;8907;-64
2023/11/02 19:00:07;;;;;;;;;34.67;29.33;;;;;;;;6487799;31;8949;-62
2023/11/02 19:06:26;;;;;;;;;32.33;31.33;;;;;;;;6488147;31;8954;-64
2023/11/02 19:12:30;;;;;;;;;28.33;25.00;;;;;;;;6488492;39;8891;-63
2023/11/02 19:18:34;;;;;;;;;32.00;30.67;;;;;;;;6487840;31;8916;-64
2023/11/02 19:24:38;;;;;;;;;34.33;29.67;;;;;;;;6488038;39;8907;-62
2023/11/02 19:30:41;;;;;;;;;30.00;26.67;;;;;;;;6486922;46;8925;-62
2023/11/02 19:36:52;;;;;;;;;31.67;31.00;;;;;;;;6486679;39;9566;-62
2023/11/02 19:42:55;;;;;;;;;33.00;28.33;;;;;;;;6486569;47;8990;-63
2023/11/02 19:48:59;;;;;;;;;31.33;28.67;;;;;;;;6487989;46;8887;-63
2023/11/02 19:55:05;;;;;;;;;31.67;28.67;;;;;;;;6525124;36;8864;-62
2023/11/02 20:01:08;;;;;;;;;28.00;28.00;;;;;;;;6489660;46;8891;-62
2023/11/02 20:07:11;;;;;;;;;28.33;28.33;;;;;;;;6489980;31;9118;-62
2023/11/02 20:13:16;;;;;;;;;29.00;28.00;;;;;;;;6489624;39;8894;-63
2023/11/02 20:19:19;;;;;;;;;30.67;29.67;;;;;;;;6488683;46;8852;-63
2023/11/02 20:25:25;;;;;;;;;29.50;25.00;;;;;;;;6490226;39;8887;-62
2023/11/02 20:31:28;;;;;;;;;28.50;27.25;;;;;;;;6490571;39;8867;-61
2023/11/02 20:37:31;;;;;;;;;34.50;27.75;;;;;;;;6489395;46;8983;-64
2023/11/02 20:43:37;;;;;;;;;26.25;25.50;;;;;;;;6488971;46;8902;-63
2023/11/02 20:49:41;;;;;;;;;33.00;29.50;;;;;;;;6489553;39;8916;-62
2023/11/02 20:55:46;;;;;;;;;33.75;30.50;;;;;;;;6488276;46;8867;-63
2023/11/02 21:01:49;;;;;;;;;30.00;29.50;;;;;;;;6488362;46;8899;-63
2023/11/02 21:07:57;;;;;;;;;28.33;28.00;;;;;;;;6488199;39;8919;-63
2023/11/02 21:14:00;;;;;;;;;30.50;29.75;;;;;;;;6489255;31;8931;-61
2023/11/02 21:20:07;;;;;;;;;23.50;22.75;;;;;;;;6489355;46;8899;-62
2023/11/02 21:26:10;;;;;;;;;29.50;27.00;;;;;;;;6489523;39;8839;-63
2023/11/02 21:32:14;;;;;;;;;33.75;29.50;;;;;;;;6489548;39;9491;-62
2023/11/02 21:38:19;;;;;;;;;28.75;27.50;;;;;;;;6488053;46;8852;-62
2023/11/02 21:44:23;;;;;;;;;32.00;30.00;;;;;;;;6487930;39;9610;-62
2023/11/02 21:50:25;;;;;;;;;30.50;27.50;;;;;;;;6489083;39;8886;-62
2023/11/02 21:56:29;;;;;;;;;26.00;25.25;;;;;;;;6488460;46;8951;-62
2023/11/02 22:02:32;;;;;;;;;31.75;25.50;;;;;;;;6489465;31;8915;-62
2023/11/02 22:08:40;;;;;;;;;31.25;27.25;;;;;;;;6489449;39;9661;-62
2023/11/02 22:14:44;;;;;;;;;30.50;28.50;;;;;;;;6488395;39;9766;-63
2023/11/02 22:20:46;;;;;;;;;31.25;24.75;;;;;;;;6488883;39;8871;-62
2023/11/02 22:26:51;;;;;;;;;26.25;25.00;;;;;;;;6489238;39;8875;-62
2023/11/02 22:32:56;;;;;;;;;23.25;23.25;;;;;;;;6488786;39;8864;-62
2023/11/02 22:39:00;;;;;;;;;28.75;27.50;;;;;;;;6489326;39;8879;-61
2023/11/02 22:45:04;;;;;;;;;26.67;26.00;;;;;;;;6488282;46;8847;-63
2023/11/02 22:51:15;;;;;;;;;25.50;24.50;;;;;;;;6487427;39;8903;-62
2023/11/02 22:57:22;;;;;;;;;30.00;25.25;;;;;;;;6489483;39;8923;-61
2023/11/02 23:03:28;;;;;;;;;28.50;25.50;;;;;;;;6488643;47;8907;-63
2023/11/02 23:09:31;;;;;;;;;22.50;20.00;;;;;;;;6488308;47;9015;-61
2023/11/02 23:15:37;;;;;;;;;23.25;23.25;;;;;;;;6487452;39;8911;-61
2023/11/02 23:21:40;;;;;;;;;24.25;23.25;;;;;;;;6488768;39;8933;-62
2023/11/02 23:27:43;;;;;;;;;22.67;22.00;;;;;;;;6489470;31;8962;-62
2023/11/02 23:33:50;;;;;;;;;23.00;20.67;;;;;;;;6490052;39;8903;-63
2023/11/02 23:40:00;;;;;;;;;24.00;21.75;;;;;;;;6488909;39;8906;-62
2023/11/02 23:46:17;;;;;;;;;21.75;21.25;;;;;;;;6489546;39;8875;-63
2023/11/02 23:52:22;;;;;;;;;23.50;21.25;;;;;;;;6490391;39;8929;-63
2023/11/02 23:58:24;;;;;;;;;23.00;20.50;;;;;;;;6490085;39;8951;-61
